createdAt,value
2023-01-18T08:07:13.431Z,25.00
2023-01-18T13:08:27.186Z,25.00
2023-01-18T13:09:27.096Z,25.00
2023-01-18T13:10:26.988Z,25.00
2023-01-18T13:11:26.844Z,25.00
2023-01-18T13:12:26.704Z,25.00
2023-01-18T13:13:26.548Z,0.00
2023-01-18T13:14:26.401Z,0.00
2023-01-18T13:15:26.289Z,0.00
2023-01-18T13:16:26.082Z,0.00
2023-01-18T13:17:25.932Z,0.00
2023-01-18T13:18:25.767Z,0.00
2023-01-18T13:19:25.650Z,0.00
2023-01-18T13:39:22.222Z,26.90
2023-01-18T13:43:21.570Z,25.24
2023-01-18T13:44:21.389Z,29.12
2023-01-18T13:45:21.229Z,26.57
2023-01-18T13:46:21.117Z,31.42
2023-01-18T13:47:20.928Z,32.95
2023-01-18T13:48:20.771Z,28.03
2023-01-18T13:49:36.110Z,26.64
2023-01-18T13:51:20.251Z,18.29
2023-01-18T13:52:20.094Z,15.07
2023-01-18T13:53:19.910Z,14.74
2023-01-18T13:54:19.746Z,13.84
2023-01-18T13:55:19.594Z,27.33
2023-01-18T13:56:19.446Z,26.23
2023-01-18T13:57:19.267Z,25.75
2023-01-18T13:58:19.129Z,25.89
2023-01-18T13:59:18.954Z,27.23
2023-01-18T14:00:18.777Z,29.14
2023-01-18T14:01:18.698Z,29.06
2023-01-18T14:02:18.447Z,26.41
2023-01-18T14:03:18.293Z,25.99
2023-01-18T14:04:18.123Z,30.99
2023-01-18T14:05:17.956Z,35.55
2023-01-18T14:06:17.802Z,39.00
2023-01-18T14:07:17.655Z,43.21
2023-01-18T14:08:17.525Z,45.34
2023-01-18T14:09:17.400Z,44.75
2023-01-18T14:10:17.270Z,48.48
2023-01-18T14:11:17.160Z,47.66
2023-01-18T14:12:17.031Z,48.67
2023-01-18T14:13:16.907Z,49.80
2023-01-18T14:14:16.781Z,51.04
2023-01-18T14:15:16.649Z,52.48
2023-01-18T14:16:16.547Z,51.94
2023-01-18T14:17:16.423Z,52.39
2023-01-18T14:18:16.296Z,54.40
2023-01-18T14:19:16.175Z,56.27
2023-01-18T14:20:16.050Z,55.67
2023-01-18T14:21:15.930Z,56.37
2023-01-18T14:22:15.815Z,57.73
2023-01-18T14:23:15.709Z,58.73
2023-01-18T14:24:15.581Z,59.81
2023-01-18T14:25:15.477Z,61.54
2023-01-18T14:26:15.356Z,63.18
2023-01-18T14:27:15.232Z,63.37
2023-01-18T14:28:15.092Z,63.40
2023-01-18T14:29:14.969Z,64.11
2023-01-18T14:30:14.871Z,65.85
2023-01-18T14:31:14.797Z,66.93
2023-01-18T14:32:14.667Z,68.61
2023-01-18T14:33:14.499Z,68.91
2023-01-18T14:34:14.387Z,69.59
2023-01-18T14:35:14.265Z,71.22
2023-01-18T14:36:14.190Z,70.88
2023-01-18T14:37:14.014Z,71.85
2023-01-18T14:38:17.882Z,71.62
2023-01-18T14:39:13.730Z,71.76
2023-01-18T14:40:13.556Z,71.88
2023-01-18T14:41:13.408Z,72.72
2023-01-18T14:42:13.247Z,74.45
2023-01-18T14:43:13.069Z,78.88
2023-01-18T14:44:12.942Z,77.74
2023-01-18T14:45:12.737Z,79.26
2023-01-18T14:46:12.630Z,79.78
2023-01-18T14:49:12.066Z,81.77
2023-01-18T14:50:11.898Z,81.49
2023-01-18T14:51:11.725Z,82.70
2023-01-18T14:53:11.413Z,82.03
2023-01-18T14:54:11.301Z,79.40
2023-01-18T14:55:11.184Z,84.18
2023-01-18T14:56:11.065Z,84.48
2023-01-18T14:57:10.942Z,87.86
2023-01-18T14:58:10.839Z,86.91
2023-01-18T14:59:10.714Z,88.30
2023-01-18T15:00:10.686Z,88.09
2023-01-18T15:15:08.790Z,100.04
2023-01-18T15:16:08.675Z,100.50
2023-01-18T15:17:08.549Z,101.81
2023-01-18T15:18:08.445Z,102.20
2023-01-18T15:19:08.304Z,104.17
2023-01-18T15:20:08.185Z,106.30
2023-01-18T15:21:08.069Z,102.67
2023-01-18T15:22:08.615Z,97.63
2023-01-18T15:23:07.836Z,96.00
2023-01-18T15:24:07.714Z,95.25
2023-01-18T15:25:07.592Z,88.19
2023-01-18T15:26:07.472Z,95.79
2023-01-18T15:27:07.346Z,100.34
2023-01-18T15:28:22.739Z,101.27
2023-01-18T15:29:08.043Z,100.62
2023-01-18T15:30:06.879Z,94.19
2023-01-18T15:31:06.737Z,91.47
2023-01-18T15:32:06.590Z,94.70
2023-01-18T15:33:06.383Z,93.44
2023-01-18T15:34:06.221Z,93.56
2023-01-18T15:35:06.051Z,95.66
2023-01-18T15:36:05.900Z,90.55
2023-01-18T15:37:05.719Z,89.59
2023-01-18T15:38:05.564Z,93.02
2023-01-18T16:49:57.608Z,184.04
2023-01-18T16:58:56.594Z,182.73
2023-01-18T16:59:56.487Z,181.95
2023-01-18T17:00:56.423Z,181.52
2023-01-18T17:01:56.371Z,179.11
2023-01-18T17:02:56.164Z,180.03
2023-01-18T17:03:56.022Z,179.37
2023-01-18T17:04:55.928Z,180.06
2023-01-18T17:05:55.819Z,180.72
2023-01-18T17:06:55.691Z,179.52
2023-01-18T17:07:55.590Z,180.19
2023-01-18T18:18:47.730Z,171.45
2023-01-18T18:19:47.647Z,173.32
2023-01-18T18:20:47.525Z,172.39
2023-01-18T18:21:47.424Z,173.94
2023-01-18T18:22:47.302Z,173.17
2023-01-18T18:23:47.204Z,173.59
2023-01-18T18:24:47.097Z,173.94
2023-01-18T18:25:46.999Z,174.49
2023-01-18T18:26:46.871Z,172.94
2023-01-18T18:27:47.505Z,173.80
2023-01-18T18:28:46.653Z,173.56
2023-01-18T18:29:46.548Z,172.77
2023-01-18T18:30:46.434Z,172.57
2023-01-18T18:31:46.332Z,172.76
2023-01-18T18:32:46.235Z,172.70
2023-01-18T18:33:46.126Z,173.72
2023-01-18T18:34:46.008Z,171.81
2023-01-18T18:35:45.906Z,172.85
2023-01-18T18:36:45.795Z,173.56
2023-01-18T18:37:45.683Z,173.54
2023-01-18T18:38:45.575Z,172.83
2023-01-18T19:36:39.401Z,169.89
2023-01-18T19:37:39.310Z,169.48
2023-01-18T19:38:45.708Z,169.32
2023-01-18T19:40:38.887Z,169.60
2023-01-18T19:41:38.716Z,169.33
2023-01-18T19:42:38.556Z,168.23
2023-01-18T19:43:38.394Z,170.07
2023-01-18T19:44:38.244Z,169.35
2023-01-18T19:45:38.085Z,167.84
2023-01-18T19:46:38.002Z,168.83
2023-01-18T19:47:37.756Z,167.32
2023-01-18T19:48:37.594Z,168.03
2023-01-18T19:49:37.484Z,167.95
2023-01-18T19:50:37.406Z,166.34
2023-01-18T19:51:37.300Z,168.53
2023-01-18T19:52:37.175Z,167.39
2023-01-18T19:53:37.073Z,168.54
2023-01-18T19:54:36.967Z,168.83
2023-01-18T19:55:36.868Z,169.09
2023-01-18T19:56:36.743Z,168.14
2023-01-18T19:57:36.659Z,169.12
2023-01-18T19:58:36.547Z,167.71
2023-01-18T19:59:36.432Z,166.87
2023-01-18T20:00:36.333Z,167.94
2023-01-18T20:01:37.404Z,167.48
2023-01-18T20:02:36.189Z,168.32
2023-01-18T20:03:36.027Z,167.65
2023-01-18T20:04:35.938Z,168.10
2023-01-18T20:05:35.831Z,167.55
2023-01-18T20:06:35.719Z,167.28
2023-01-18T20:07:35.614Z,167.02
2023-01-18T20:08:35.513Z,167.52
2023-01-18T20:09:43.226Z,168.05
2023-01-18T20:10:36.316Z,168.18
2023-01-18T20:11:35.101Z,168.30
2023-01-18T20:12:34.933Z,168.35
2023-01-18T20:13:34.761Z,167.57
2023-01-18T20:14:41.192Z,167.32
2023-01-18T20:15:35.448Z,168.17
2023-01-18T20:16:34.302Z,168.25
2023-01-18T20:17:34.103Z,167.74
2023-01-18T20:18:33.960Z,166.30
2023-01-18T20:19:33.780Z,167.62
2023-01-18T20:20:33.628Z,165.88
2023-01-18T20:21:33.490Z,166.40
2023-01-18T20:22:33.314Z,166.57
2023-01-18T20:23:33.136Z,166.90
2023-01-18T20:24:33.019Z,167.46
2023-01-18T20:25:32.909Z,167.78
2023-01-18T20:26:37.321Z,165.63
2023-01-18T20:27:33.651Z,165.76
2023-01-18T20:28:32.481Z,165.84
2023-01-18T20:29:32.307Z,164.83
2023-01-18T20:30:32.151Z,165.85
2023-01-18T20:31:32.036Z,165.27
2023-01-18T20:32:31.885Z,165.14
2023-01-18T20:33:31.645Z,165.05
2023-01-18T20:34:31.484Z,163.54
2023-01-18T20:35:31.338Z,164.41
2023-01-18T20:36:31.269Z,164.72
2023-01-18T20:37:31.129Z,163.79
2023-01-18T20:38:31.022Z,163.19
2023-01-18T20:39:30.909Z,164.00
2023-01-18T20:40:30.806Z,163.62
2023-01-18T20:41:30.726Z,163.70
2023-01-18T20:42:30.603Z,165.05
2023-01-18T20:43:30.501Z,164.26
2023-01-18T20:44:30.411Z,164.61
2023-01-18T20:45:30.361Z,164.31
2023-01-18T20:46:30.197Z,164.71
2023-01-18T20:47:30.090Z,163.75
2023-01-18T20:48:29.976Z,162.53
2023-01-18T20:49:38.642Z,162.58
2023-01-18T20:50:30.702Z,162.68
2023-01-18T20:51:29.542Z,162.66
2023-01-18T20:52:29.384Z,162.66
2023-01-18T20:53:29.221Z,162.99
2023-01-18T20:54:29.046Z,162.36
2023-01-18T20:55:28.889Z,162.45
2023-01-18T20:56:29.884Z,162.11
2023-01-18T20:57:28.550Z,162.65
2023-01-18T20:58:28.384Z,161.84
2023-01-18T20:59:28.286Z,161.48
2023-01-18T21:00:28.151Z,161.47
2023-01-18T21:01:28.125Z,161.97
2023-01-18T21:02:27.977Z,161.77
2023-01-18T21:03:27.833Z,161.68
2023-01-18T21:04:27.728Z,161.43
2023-01-18T21:05:27.616Z,160.93
2023-01-18T21:06:27.547Z,160.29
2023-01-18T21:07:27.411Z,160.36
2023-01-18T21:08:27.313Z,160.27
2023-01-18T21:09:27.206Z,160.55
2023-01-18T21:10:27.117Z,159.34
2023-01-18T21:11:27.042Z,159.37
2023-01-18T21:12:26.920Z,159.76
2023-01-18T21:13:26.794Z,160.32
2023-01-18T21:14:26.703Z,159.52
2023-01-18T21:15:26.604Z,158.06
2023-01-18T21:16:26.489Z,159.54
2023-01-18T21:17:26.374Z,158.89
2023-01-18T21:18:26.269Z,157.98
2023-01-18T21:19:26.157Z,157.79
2023-01-18T21:20:26.054Z,157.99
2023-01-18T21:21:25.952Z,156.83
2023-01-18T21:22:25.835Z,156.37
2023-01-18T21:23:25.740Z,156.92
2023-01-18T21:24:25.624Z,157.05
2023-01-18T21:25:25.511Z,157.24
2023-01-18T21:26:25.423Z,156.80
2023-01-18T21:27:25.300Z,156.81
2023-01-18T21:28:25.205Z,157.17
2023-01-18T21:29:25.107Z,156.21
2023-01-18T21:30:24.993Z,157.34
2023-01-18T21:31:24.936Z,155.69
2023-01-18T21:32:24.777Z,156.73
2023-01-18T21:33:24.683Z,156.02
2023-01-18T21:34:24.573Z,157.40
2023-01-18T21:35:24.475Z,156.40
2023-01-18T21:36:24.359Z,156.50
2023-01-18T21:37:24.325Z,155.52
2023-01-18T21:38:24.166Z,156.61
2023-01-18T21:39:24.223Z,155.39
2023-01-18T21:40:24.000Z,154.17
2023-01-18T21:41:23.871Z,155.80
2023-01-18T21:42:23.740Z,155.88
2023-01-18T21:43:23.673Z,156.20
2023-01-18T21:44:23.557Z,154.98
2023-01-18T21:45:23.437Z,155.15
2023-01-18T21:46:23.393Z,155.72
2023-01-18T21:47:23.234Z,155.08
2023-01-18T21:48:23.118Z,155.04
2023-01-18T21:49:32.896Z,154.40
2023-01-18T21:50:23.861Z,154.53
2023-01-18T21:51:22.690Z,154.64
2023-01-18T21:52:22.522Z,154.61
2023-01-18T21:53:22.375Z,154.71
2023-01-18T21:54:22.229Z,153.98
2023-01-18T21:55:22.066Z,154.98
2023-01-18T21:56:21.885Z,154.19
2023-01-18T21:57:21.715Z,153.66
2023-01-18T21:58:21.560Z,155.46
2023-01-18T21:59:21.429Z,155.06
2023-01-18T22:00:21.335Z,153.78
2023-01-18T22:01:21.326Z,154.56
2023-01-18T22:02:21.305Z,152.93
2023-01-18T22:03:21.030Z,153.70
2023-01-18T22:04:20.948Z,152.53
2023-01-18T22:05:20.825Z,152.42
2023-01-18T22:06:20.733Z,153.11
2023-01-18T22:07:20.628Z,152.18
2023-01-18T22:08:20.527Z,153.01
2023-01-18T22:09:20.425Z,151.90
2023-01-18T22:10:20.338Z,152.38
2023-01-18T22:11:20.229Z,151.51
2023-01-18T22:12:20.117Z,152.33
2023-01-18T22:13:20.013Z,151.94
2023-01-18T22:14:19.911Z,151.73
2023-01-18T22:15:19.798Z,150.53
2023-01-18T22:16:19.752Z,151.04
2023-01-18T22:17:19.598Z,151.24
2023-01-18T22:18:19.489Z,148.40
2023-01-18T22:19:19.388Z,151.29
2023-01-18T22:20:19.286Z,150.90
2023-01-18T22:21:19.185Z,151.35
2023-01-18T22:22:19.127Z,151.97
2023-01-18T22:23:18.971Z,150.98
2023-01-18T22:24:18.874Z,150.10
2023-01-18T22:25:18.759Z,147.92
2023-01-18T22:26:18.658Z,150.47
2023-01-18T22:27:18.563Z,149.53
2023-01-18T22:28:18.439Z,150.78
2023-01-18T22:29:18.351Z,149.76
2023-01-18T22:30:18.242Z,148.76
2023-01-18T22:31:18.196Z,149.11
2023-01-18T22:32:18.040Z,149.01
2023-01-18T22:33:17.944Z,147.84
2023-01-18T22:34:17.859Z,150.28
2023-01-18T22:35:17.762Z,148.37
2023-01-18T22:36:17.627Z,148.97
2023-01-18T22:37:17.560Z,148.26
2023-01-18T22:38:17.427Z,149.55
2023-01-18T22:39:17.356Z,147.74
2023-01-18T22:40:17.236Z,147.70
2023-01-18T22:41:17.113Z,148.23
2023-01-18T22:42:17.009Z,147.84
2023-01-18T22:43:16.943Z,147.86
2023-01-18T22:44:16.811Z,149.16
2023-01-18T22:45:16.720Z,150.07
2023-01-18T22:46:16.672Z,149.57
2023-01-18T22:47:16.511Z,149.66
2023-01-18T22:48:16.407Z,148.50
2023-01-18T22:49:16.369Z,147.84
2023-01-18T22:50:16.206Z,147.32
2023-01-18T22:51:16.107Z,146.24
2023-01-18T22:52:16.010Z,147.35
2023-01-18T22:53:15.914Z,147.39
2023-01-18T22:54:15.843Z,147.37
2023-01-18T22:55:15.718Z,145.54
2023-01-18T22:56:15.602Z,145.98
2023-01-18T23:13:13.871Z,145.37
2023-01-18T23:14:13.765Z,144.09
2023-01-18T23:15:13.678Z,145.28
2023-01-18T23:16:13.567Z,145.10
2023-01-18T23:17:13.450Z,143.32
2023-01-18T23:18:13.353Z,143.48
2023-01-18T23:19:13.245Z,143.58
2023-01-18T23:20:13.157Z,142.27
2023-01-18T23:21:13.041Z,143.09
2023-01-18T23:22:12.949Z,142.58
2023-01-18T23:23:12.842Z,143.26
2023-01-18T23:24:12.725Z,142.80
2023-01-18T23:25:12.625Z,141.84
2023-01-18T23:26:13.128Z,144.05
2023-01-18T23:27:12.478Z,143.76
2023-01-18T23:28:12.322Z,141.71
2023-01-18T23:29:12.206Z,144.56
2023-01-18T23:30:12.106Z,142.79
2023-01-18T23:31:12.095Z,142.06
2023-01-18T23:32:11.919Z,141.14
2023-01-18T23:33:11.809Z,141.99
2023-01-18T23:34:11.711Z,142.09
2023-01-18T23:35:11.600Z,140.90
2023-01-18T23:36:11.490Z,141.72
2023-01-18T23:37:11.395Z,141.41
2023-01-18T23:38:11.308Z,141.93
2023-01-18T23:39:11.193Z,140.52
2023-01-18T23:40:11.093Z,140.95
2023-01-18T23:41:10.985Z,139.06
2023-01-18T23:42:10.879Z,139.69
2023-01-18T23:43:10.776Z,139.56
2023-01-18T23:44:10.679Z,139.48
2023-01-18T23:45:10.596Z,140.12
2023-01-18T23:46:10.518Z,138.83
2023-01-18T23:47:10.355Z,139.47
2023-01-18T23:48:10.253Z,138.14
2023-01-18T23:49:10.157Z,137.95
2023-01-18T23:50:10.048Z,138.03
2023-01-18T23:51:09.959Z,138.88
2023-01-18T23:52:09.852Z,138.12
2023-01-18T23:53:09.755Z,138.34
2023-01-18T23:54:09.658Z,137.53
2023-01-18T23:55:09.553Z,138.69
2023-01-18T23:56:09.471Z,137.90
2023-01-18T23:57:09.406Z,137.98
2023-01-18T23:58:09.247Z,137.37
2023-01-18T23:59:09.142Z,137.24
